Belk, Alabama
Current Conditions -  °F | °C
As of 4:58 PM on Tuesday 25 Nov 2014 (Local Time) from KCBM Reporting Station
Broken Clouds Broken Clouds  
Wind Chill: 43°   Ceiling: 14000
Heat Index: 47°   Visibility: 10mi
Dew Point: 30°   Wind: 7mph
Humidity: 53%   Direction: 300°WNW
Pressure: 30.15"   Gusts: NA
Location:  33.65°N, 87.93°W
Report Text: KCBM 252258Z AUTO 30006KT 10SM BKN140 08/M01 A3015 RMK AO2 SLP214 T00811011 $
Loading
Personal Weather Stations






























Interactive Weather Map New forecast layout! Learn more

10-Day Weather Forecast

Advertisements
Track Severe Weather on mobile